ルア の空港の天気 - METARとTAF

マルタ国際空港 ( LMML / MLA ) - マルタ ルア
飛行場実況気象(Metar)
観測時間05/17 17:45 CEST (05/17 15:45 UTC)
風向・風速北北東 4m/s
視程10km以上
天気現象
なし
気温30℃
湿度25%
気圧1013hPa
METARLMML 171545Z 03007KT CAVOK 30/08 Q1013 NOSIG
過去の天気等 Google飛行場航空写真 Wunderground天気予報

過去48時間のMETAR

飛行場予報(TAF)
発表時間: 5/17 13:00 CEST (5/17 11:00 UTC)
予報対象時間: 17日14時 CEST ~ 18日14時 CEST
風向・風速不定 4m/s
視程10km以上
なし
TAF LMML 171100Z 1712/1812 VRB08KT CAVOK